ムンバイ の空港の天気 - METARとTAF

チャットラパティー・シヴァージー国際空港 ( VABB / BOM ) - インド ムンバイ
飛行場実況気象(Metar)
観測時間07/12 21:30 IST (07/12 16:00 UTC)
風向・風速東 2m/s
視程3000m
天気現象煙霧
全天の4割程度の雲 雲底高度 550m
少しの雲 雲底高度 760m
全天の8割程度の雲 雲底高度 2740m
気温26℃
湿度94%
気圧1005hPa
METARVABB 121600Z 10003KT 3000 HZ SCT018 FEW025TCU BKN090 26/25 Q1005 NOSIG
過去の天気等 Google飛行場航空写真 Wunderground天気予報

過去48時間のMETAR

飛行場予報(TAF)
発表時間: 7/12 13:30 IST (7/12 08:00 UTC)
予報対象時間: 12日14時 IST ~ 12日23時 IST
風向・風速南西 6m/s
視程1500m
天気現象弱い雷雨 雨
全天の4割程度の雲 雲底高度 370m
全天の4割程度の雲 雲底高度 550m
少しの塔状積雲 雲底高度 760m
全天の8割程度の雲 雲底高度 2740m
12日14時 IST ~ 12日20時 IST に一時的に
視程800m
天気現象雷雨 強い雨
全天の8割程度の雲 雲底高度 240m
少しの積乱雲 雲底高度 910m
全天を覆う雲 雲底高度 2440m
12日18時 IST ~ 12日20時 IST に徐々に
視程2000m
天気現象弱い雨
TAF VABB 120800Z 1209/1218 23012KT 1500 -TSRA RA SCT012 SCT018 FEW025TCU BKN090
TEMPO 1209/1215 0800 TSRA +RA BKN008 FEW030CB OVC080
BECMG 1213/1215 2000 -RA